Barreirinha, Brazil
Current Conditions -  °F | °C
As of 1:00 PM on Monday 20 Oct 2014 (Local Time) from SBIH Reporting Station
Few Clouds Few Clouds  
Wind Chill: 95°   Ceiling: Unl
Heat Index: 105°   Visibility: 6mi
Dew Point: 73°   Wind: 3mph
Humidity: 49%   Direction: 150°SSE
Pressure: 29.83"   Gusts: NA
Location:  2.79°S, 57.07°W
Report Text: SBIH 201700Z 15003KT 9999 FEW020 35/23 Q1010
Loading
Personal Weather Stations






























Interactive Weather Map
Tropical Storm Tracking
New forecast layout! Learn more

10-Day Weather Forecast

Advertisements
Track Severe Weather on mobile